createdAt,value
2022-11-27T00:13:27.214Z,24.343
2022-11-27T00:28:29.307Z,25.485
2022-11-27T00:43:32.495Z,27.19
2022-11-27T00:58:41.768Z,26.772
2022-11-27T01:13:43.675Z,25.708
2022-11-27T01:28:45.646Z,24.218
2022-11-27T01:43:47.584Z,23.469
2022-11-27T01:58:49.542Z,24.067
2022-11-27T02:13:51.471Z,23.755
2022-11-27T02:28:53.378Z,23.475
2022-11-27T02:43:55.294Z,23.429
2022-11-27T02:58:57.290Z,23.266
2022-11-27T03:13:59.178Z,23.545
2022-11-27T03:29:01.072Z,23.542
2022-11-27T03:44:02.997Z,23.118
2022-11-27T03:59:04.925Z,22.809
2022-11-27T04:14:06.830Z,23.606
2022-11-27T04:29:08.757Z,23.757
2022-11-27T04:44:10.659Z,24.022
2022-11-27T04:59:12.583Z,24.29
2022-11-27T05:14:14.490Z,23.732
2022-11-27T05:29:16.484Z,23.952
2022-11-27T05:44:18.387Z,23.986
2022-11-27T05:59:20.301Z,24.294
2022-11-27T06:14:22.200Z,23.61
2022-11-27T06:29:24.099Z,24.466
2022-11-27T06:44:26.017Z,23.845
2022-11-27T06:59:27.958Z,23.311
2022-11-27T07:14:30.070Z,21.986
2022-11-27T07:29:31.984Z,23.634
2022-11-27T07:44:33.892Z,23.166
2022-11-27T07:59:35.799Z,22.279
2022-11-27T08:14:38.385Z,22.863
2022-11-27T08:29:40.452Z,21.226
2022-11-27T08:44:42.719Z,21.288
2022-11-27T08:59:44.973Z,20.817
2022-11-27T09:14:46.892Z,20.698
2022-11-27T09:29:48.790Z,20.799
2022-11-27T09:44:50.707Z,19.76
2022-11-27T09:59:52.621Z,20.438
2022-11-27T10:14:54.545Z,20.765
2022-11-27T10:29:56.450Z,19.927
2022-11-27T10:44:58.360Z,20.211
2022-11-27T11:00:00.300Z,20.504
2022-11-27T11:15:02.152Z,19.884
2022-11-27T11:30:04.131Z,19.841
2022-11-27T11:45:05.995Z,20.288
2022-11-27T12:00:07.903Z,20.764
2022-11-27T12:15:09.818Z,19.712
2022-11-27T12:30:11.722Z,20.305
2022-11-27T12:45:13.639Z,20.338
2022-11-27T13:00:15.696Z,20.883
2022-11-27T13:15:17.563Z,20.487
2022-11-27T13:30:19.447Z,21.442
2022-11-27T13:45:21.301Z,21.871
2022-11-27T14:00:23.161Z,21.965
2022-11-27T14:15:24.984Z,22.105
2022-11-27T14:30:26.846Z,21.841
2022-11-27T14:45:28.694Z,22.046
2022-11-27T15:00:30.533Z,21.94
2022-11-27T15:15:32.424Z,22.201
2022-11-27T15:30:34.339Z,22.072
2022-11-27T15:45:36.328Z,23.069
2022-11-27T16:00:38.283Z,21.794
2022-11-27T16:15:40.125Z,22.031
2022-11-27T16:30:41.940Z,21.056
2022-11-27T16:45:43.977Z,20.969
2022-11-27T17:00:45.912Z,21.03
2022-11-27T17:15:47.830Z,21.185
2022-11-27T17:30:49.714Z,20.842
2022-11-27T17:45:51.658Z,21.756
2022-11-27T18:00:53.672Z,20.979
2022-11-27T18:15:55.604Z,21.855
2022-11-27T18:30:57.506Z,21.608
2022-11-27T18:45:59.489Z,21.52
2022-11-27T19:01:01.525Z,20.442
2022-11-27T19:16:03.450Z,20.653
2022-11-27T19:31:05.387Z,20.121
2022-11-27T19:46:07.348Z,21.138
2022-11-27T20:01:09.420Z,20.735
2022-11-27T20:16:11.482Z,21.362
2022-11-27T20:31:13.545Z,21.995
2022-11-27T20:46:15.624Z,21.82
2022-11-27T21:01:17.679Z,21.336
2022-11-27T21:16:19.679Z,20.723
2022-11-27T21:31:21.743Z,20.497
2022-11-27T21:46:23.774Z,20.009
2022-11-27T22:01:25.875Z,19.76
2022-11-27T22:16:27.881Z,19.206
2022-11-27T22:31:30.051Z,19.533
2022-11-27T22:46:32.123Z,19.483
2022-11-27T23:01:34.023Z,19.523
2022-11-27T23:16:36.023Z,18.698
2022-11-27T23:31:38.050Z,18.97
2022-11-27T23:46:40.064Z,19.421
